Time;durP1;ratioP1;P1;durP2;ratioP2;P2;SDS_P1;SDS_P2;PMS_P1;PMS_P2;Temp;Humidity;BMP_temperature;BMP_pressure;BME280_temperature;BME280_humidity;BME280_pressure;Samples;Min_cycle;Max_cycle;Signal;HPM_P1;HPM_P2
2021/04/14 00:01:37;;;;;;;14.68;9.18;;;;;;;14.31;53.40;100799.59;1743909;82;21092;-78
2021/04/14 00:04:06;;;;;;;13.78;9.65;;;;;;;14.30;53.39;100798.73;1762049;81;21077;-76
2021/04/14 00:06:35;;;;;;;15.43;9.48;;;;;;;14.28;53.41;100795.89;1743926;82;21170;-77
2021/04/14 00:09:05;;;;;;;13.45;8.83;;;;;;;14.27;53.38;100788.83;1762050;81;21062;-77
2021/04/14 00:11:33;;;;;;;11.33;8.53;;;;;;;14.27;53.35;100794.22;1714951;82;21126;-77
2021/04/14 00:14:01;;;;;;;13.20;9.10;;;;;;;14.26;53.36;100791.16;1762152;81;21640;-78
2021/04/14 00:16:29;;;;;;;14.73;9.30;;;;;;;14.31;53.29;100796.91;1744003;82;21067;-77
2021/04/14 00:18:57;;;;;;;14.15;9.65;;;;;;;14.35;53.17;100799.55;1762089;81;21081;-76
2021/04/14 00:21:25;;;;;;;15.13;10.72;;;;;;;14.35;53.06;100800.42;1743990;82;21106;-75
2021/04/14 00:23:53;;;;;;;15.40;10.70;;;;;;;14.38;53.00;100803.25;1762030;81;21624;-76
2021/04/14 00:26:22;;;;;;;16.55;12.03;;;;;;;14.36;52.94;100794.01;1743726;82;21131;-77
2021/04/14 00:28:49;;;;;;;19.80;14.13;;;;;;;14.35;52.86;100796.37;1743934;81;21205;-77
2021/04/14 00:31:16;;;;;;;22.62;14.07;;;;;;;14.35;52.82;100792.33;1743932;82;21537;-77
2021/04/14 00:33:45;;;;;;;18.73;13.40;;;;;;;14.37;52.76;100794.33;1743825;81;21526;-76
2021/04/14 00:36:12;;;;;;;18.55;13.35;;;;;;;14.31;52.83;100790.16;1762015;81;21601;-76
2021/04/14 00:38:41;;;;;;;20.55;12.33;;;;;;;14.32;52.82;100790.49;1743867;82;21142;-76
2021/04/14 00:41:13;;;;;;;22.32;15.30;;;;;;;14.39;52.62;100787.41;1758185;80;21201;-75
2021/04/14 00:43:41;;;;;;;48.40;29.72;;;;;;;14.36;52.56;100783.23;1774945;80;21173;-76
2021/04/14 00:46:08;;;;;;;;;;;;;;;14.34;52.62;100780.36;1808455;79;21074;-77
2021/04/14 00:48:36;;;;;;;43.38;28.05;;;;;;;14.36;52.64;100780.53;1779707;79;20232;-77
2021/04/14 00:51:06;;;;;;;34.00;23.42;;;;;;;14.37;52.55;100781.38;1797473;79;21033;-77
2021/04/14 00:53:34;;;;;;;32.93;22.58;;;;;;;14.40;52.45;100778.34;1760878;81;21121;-77
2021/04/14 00:56:04;;;;;;;24.72;16.95;;;;;;;14.42;52.38;100774.94;1760918;81;21156;-77
2021/04/14 00:58:31;;;;;;;21.33;15.18;;;;;;;14.40;52.31;100775.13;1790950;79;21100;-76
2021/04/14 01:00:59;;;;;;;20.77;13.18;;;;;;;14.37;52.34;100776.81;1779421;80;21682;-76
2021/04/14 01:03:34;;;;;;;20.75;12.78;;;;;;;14.37;52.34;100773.28;1769082;80;21513;-77
2021/04/14 01:06:10;;;;;;;33.13;17.30;;;;;;;14.37;52.30;100770.08;1766982;81;21144;-76
2021/04/14 01:08:38;;;;;;;21.20;13.28;;;;;;;14.35;52.30;100764.52;1779184;80;21097;-76
2021/04/14 01:11:07;;;;;;;55.60;29.72;;;;;;;14.37;52.28;100774.63;1779417;80;21520;-76
2021/04/14 01:13:36;;;;;;;81.57;37.23;;;;;;;14.38;52.14;100773.61;1749629;82;21087;-76
2021/04/14 01:16:05;;;;;;;57.20;27.27;;;;;;;14.37;52.10;100780.02;1777802;79;21066;-77
2021/04/14 01:18:36;;;;;;;39.08;20.72;;;;;;;14.35;52.11;100776.64;1768462;81;21141;-77
2021/04/14 01:21:09;;;;;;;21.97;14.60;;;;;;;14.33;52.14;100775.99;1732105;81;21524;-76
2021/04/14 01:23:36;;;;;;;33.88;19.27;;;;;;;14.33;52.23;100775.48;1748566;81;21078;-78
2021/04/14 01:26:04;;;;;;;37.53;20.10;;;;;;;14.34;52.27;100777.16;1719638;83;21094;-76
2021/04/14 01:28:37;;;;;;;27.32;16.32;;;;;;;14.31;52.37;100769.95;1703228;84;21584;-77
2021/04/14 01:31:13;;;;;;;42.45;16.20;;;;;;;14.25;52.53;100769.28;1728545;83;21080;-75
2021/04/14 01:33:41;;;;;;;524.23;38.55;;;;;;;14.21;52.68;100770.13;1728682;83;21138;-74
2021/04/14 01:36:09;;;;;;;18.15;13.03;;;;;;;14.24;52.78;100770.30;1735887;80;21193;-74
2021/04/14 01:38:38;;;;;;;16.77;11.57;;;;;;;14.28;52.74;100769.78;1728410;83;21116;-74
2021/04/14 01:41:07;;;;;;;15.90;11.08;;;;;;;14.29;52.71;100769.27;1728557;80;21078;-74
2021/04/14 01:43:34;;;;;;;26.12;12.55;;;;;;;14.25;52.77;100767.94;1771893;80;21161;-76
2021/04/14 01:46:02;;;;;;;15.18;10.95;;;;;;;14.20;52.88;100763.08;1768268;81;21176;-75
2021/04/14 01:48:30;;;;;;;14.95;11.25;;;;;;;14.25;52.91;100763.89;1762763;80;21656;-75
2021/04/14 01:50:57;;;;;;;14.93;10.20;;;;;;;14.25;52.82;100756.66;1773726;80;21204;-74
2021/04/14 01:53:24;;;;;;;;;;;;;;;14.25;52.80;100762.55;1769880;80;21093;-75
2021/04/14 01:55:51;;;;;;;18.77;11.50;;;;;;;14.23;52.84;100760.55;1769761;80;20259;-76
2021/04/14 01:58:20;;;;;;;19.42;13.00;;;;;;;14.23;52.84;100768.13;1762839;81;21143;-75
2021/04/14 02:00:55;;;;;;;20.27;13.50;;;;;;;14.27;52.69;100775.36;1763411;81;21530;-75
2021/04/14 02:03:21;;;;;;;18.57;11.40;;;;;;;14.28;52.54;100771.64;1764002;81;21184;-75
2021/04/14 02:05:49;;;;;;;21.35;13.60;;;;;;;14.27;52.47;100776.19;1770701;80;21612;-75
2021/04/14 02:08:18;;;;;;;19.45;13.00;;;;;;;14.21;52.50;100775.02;1779350;80;21059;-75
2021/04/14 02:10:46;;;;;;;30.40;19.82;;;;;;;14.17;52.48;100768.80;1779428;80;21506;-76
2021/04/14 02:13:18;;;;;;;21.30;13.88;;;;;;;14.09;52.54;100772.38;1779349;80;21081;-75
2021/04/14 02:15:48;;;;;;;20.70;12.60;;;;;;;14.04;52.60;100760.45;1776594;79;21176;-74
2021/04/14 02:18:16;;;;;;;22.85;13.03;;;;;;;13.99;52.62;100763.67;1733558;80;21072;-75
2021/04/14 02:20:43;;;;;;;;;;;;;;;13.93;52.64;100773.25;1767325;80;21567;-75
2021/04/14 02:23:17;;;;;;;20.97;14.40;;;;;;;13.82;52.74;100780.88;1768544;80;20218;-75
2021/04/14 02:25:45;;;;;;;23.95;14.30;;;;;;;13.75;52.94;100777.17;1776835;80;21105;-75
2021/04/14 02:28:14;;;;;;;26.97;15.55;;;;;;;13.69;53.07;100776.84;1762594;81;21173;-75
2021/04/14 02:30:43;;;;;;;27.60;15.88;;;;;;;13.66;53.17;100772.30;1762812;81;21141;-75
2021/04/14 02:33:10;;;;;;;29.60;15.98;;;;;;;13.62;53.23;100766.92;1762762;81;21583;-75
2021/04/14 02:35:38;;;;;;;29.48;17.70;;;;;;;13.61;53.30;100764.73;1767301;80;21501;-75
2021/04/14 02:38:06;;;;;;;29.23;16.48;;;;;;;13.62;53.26;100761.03;1779389;80;21069;-75
2021/04/14 02:40:34;;;;;;;26.93;15.08;;;;;;;13.64;53.23;100763.06;1768261;80;21196;-75
2021/04/14 02:43:01;;;;;;;26.93;15.32;;;;;;;13.65;53.15;100762.05;1762016;81;21216;-74
2021/04/14 02:45:30;;;;;;;24.85;15.23;;;;;;;13.62;53.13;100758.34;1765294;79;21487;-75
2021/04/14 02:47:58;;;;;;;24.15;14.60;;;;;;;13.59;53.11;100764.08;1748564;82;21601;-74
2021/04/14 02:50:25;;;;;;;21.40;14.00;;;;;;;13.55;53.15;100764.59;1719612;83;21204;-75
2021/04/14 02:52:53;;;;;;;;;;;;;;;13.53;53.21;100761.22;1708223;82;21155;-75
2021/04/14 02:55:21;;;;;;;12.88;9.03;;;;;;;13.47;53.27;100755.17;1758703;81;20260;-75
2021/04/14 02:57:48;;;;;;;15.00;10.65;;;;;;;13.43;53.43;100751.97;1758630;81;21434;-75
2021/04/14 03:00:20;;;;;;;16.17;11.97;;;;;;;13.39;53.57;100754.67;1758620;81;21061;-75
2021/04/14 03:02:48;;;;;;;22.42;14.75;;;;;;;13.37;53.72;100752.16;1758671;81;21080;-76
2021/04/14 03:05:17;;;;;;;25.37;15.98;;;;;;;13.37;53.72;100755.36;1758675;81;21078;-75
2021/04/14 03:07:44;;;;;;;28.45;18.80;;;;;;;13.37;53.72;100762.08;1758700;81;21065;-74
2021/04/14 03:10:11;;;;;;;31.45;20.43;;;;;;;13.33;53.69;100760.73;1758547;81;21149;-75
2021/04/14 03:12:40;;;;;;;26.73;17.42;;;;;;;13.26;53.78;100754.33;1758424;81;21211;-75
2021/04/14 03:15:11;;;;;;;32.30;22.32;;;;;;;13.26;53.79;100751.64;1778925;80;21193;-75
2021/04/14 03:17:39;;;;;;;30.30;20.75;;;;;;;13.24;53.77;100756.36;1781440;80;21184;-74
2021/04/14 03:20:08;;;;;;;26.00;17.48;;;;;;;13.21;53.78;100752.95;1778548;80;21161;-76
2021/04/14 03:22:35;;;;;;;24.30;16.12;;;;;;;13.20;53.75;100755.31;1763399;81;21565;-77
2021/04/14 03:25:03;;;;;;;;;;;;;;;13.16;53.70;100749.93;1780648;80;21173;-76
2021/04/14 03:27:30;;;;;;;21.55;14.75;;;;;;;13.16;53.75;100751.27;1744813;82;20272;-75
2021/04/14 03:29:57;;;;;;;25.15;16.48;;;;;;;13.15;53.73;100756.83;1777539;80;21157;-75
2021/04/14 03:32:24;;;;;;;;;;;;;;;13.08;53.75;100758.02;1773184;80;21160;-74
2021/04/14 03:34:52;;;;;;;19.42;13.32;;;;;;;13.06;53.84;100753.30;1747966;82;20283;-73
2021/04/14 03:37:19;;;;;;;19.30;14.03;;;;;;;13.08;53.88;100750.42;1745524;82;21690;-74
2021/04/14 03:39:47;;;;;;;;;;;;;;;13.09;53.81;100746.75;1747995;81;21229;-74
2021/04/14 03:42:15;;;;;;;19.97;12.80;;;;;;;13.10;53.77;100746.58;1779729;80;20281;-75
2021/04/14 03:44:42;;;;;;;22.42;14.38;;;;;;;13.07;53.80;100744.72;1766027;80;21693;-75
2021/04/14 03:47:09;;;;;;;20.57;13.78;;;;;;;13.05;53.85;100751.63;1767521;80;21188;-74
2021/04/14 03:49:36;;;;;;;18.42;12.55;;;;;;;13.02;53.93;100754.63;1720180;82;21709;-75
2021/04/14 03:52:03;;;;;;;;;;;;;;;13.00;54.02;100749.94;1769815;80;21134;-75
2021/04/14 03:54:31;;;;;;;15.80;11.28;;;;;;;13.04;54.08;100747.77;1778715;80;20230;-76
2021/04/14 03:56:59;;;;;;;16.77;10.85;;;;;;;13.04;54.06;100749.95;1735110;80;21414;-75
2021/04/14 03:59:28;;;;;;;16.70;10.95;;;;;;;13.09;53.93;100748.94;1762622;80;21192;-75
2021/04/14 04:01:56;;;;;;;15.93;11.05;;;;;;;13.12;53.82;100747.23;1759754;81;21690;-73
2021/04/14 04:04:23;;;;;;;;;;;;;;;13.16;53.79;100754.47;1764135;80;21132;-76
2021/04/14 04:06:49;;;;;;;18.45;12.03;;;;;;;13.20;53.67;100750.44;1778452;80;20285;-75
2021/04/14 04:09:17;;;;;;;20.05;11.18;;;;;;;13.24;53.54;100751.82;1777556;80;21173;-77
2021/04/14 04:11:44;;;;;;;16.12;10.35;;;;;;;13.31;53.38;100754.19;1777432;80;21184;-75
2021/04/14 04:14:13;;;;;;;19.80;13.22;;;;;;;13.37;53.17;100759.39;1772187;80;21180;-76
2021/04/14 04:16:40;;;;;;;32.58;21.25;;;;;;;13.40;53.09;100760.41;1760576;81;21235;-79
2021/04/14 04:19:08;;;;;;;38.02;23.87;;;;;;;13.44;53.05;100767.11;1761113;81;21439;-75
2021/04/14 04:21:35;;;;;;;26.12;17.98;;;;;;;13.50;52.95;100769.14;1761076;80;21188;-75
2021/04/14 04:24:06;;;;;;;38.65;24.85;;;;;;;13.54;52.85;100772.34;1764585;80;21668;-75
2021/04/14 04:26:35;;;;;;;42.03;25.05;;;;;;;13.53;52.80;100783.58;1772175;80;21105;-77
2021/04/14 04:29:03;;;;;;;36.63;20.32;;;;;;;13.55;52.85;100771.32;1762286;80;21205;-76
2021/04/14 04:31:30;;;;;;;36.23;19.25;;;;;;;13.57;52.90;100777.36;1761976;80;21667;-75
2021/04/14 04:33:57;;;;;;;28.35;17.85;;;;;;;13.65;52.93;100778.20;1768358;80;21209;-75
2021/04/14 04:36:26;;;;;;;33.28;19.42;;;;;;;13.70;52.90;100775.83;1773678;80;21183;-77
2021/04/14 04:38:54;;;;;;;36.15;20.48;;;;;;;13.79;52.81;100781.20;1775786;80;21864;-77
2021/04/14 04:41:21;;;;;;;45.63;24.63;;;;;;;13.86;52.48;100787.59;1761559;80;21139;-75
2021/04/14 04:43:49;;;;;;;49.95;25.85;;;;;;;13.83;52.06;100784.73;1774868;80;21141;-76
2021/04/14 04:46:16;;;;;;;44.27;21.57;;;;;;;13.78;52.03;100791.64;1779113;80;21205;-76
2021/04/14 04:48:43;;;;;;;40.40;21.77;;;;;;;13.73;51.79;100795.36;1776639;80;21621;-75
2021/04/14 04:51:10;;;;;;;;;;;;;;;13.68;51.86;100789.98;1779688;80;21185;-75
2021/04/14 04:53:38;;;;;;;27.40;16.90;;;;;;;13.67;51.78;100784.74;1747963;82;20276;-75
2021/04/14 04:56:05;;;;;;;27.60;16.85;;;;;;;13.60;51.67;100794.02;1768328;80;21251;-75
2021/04/14 04:58:32;;;;;;;26.27;17.77;;;;;;;13.54;51.74;100786.63;1766772;80;21193;-73
2021/04/14 05:00:59;;;;;;;33.65;18.55;;;;;;;13.54;51.66;100789.33;1772851;80;21217;-75
2021/04/14 05:03:28;;;;;;;;;;;;;;;13.52;51.59;100783.76;1776029;80;21188;-74
2021/04/14 05:05:57;;;;;;;24.52;16.95;;;;;;;13.49;51.58;100791.69;1765040;80;20261;-76
2021/04/14 05:08:25;;;;;;;26.60;16.23;;;;;;;13.41;51.60;100791.68;1757870;81;21232;-74
2021/04/14 05:10:54;;;;;;;25.50;16.20;;;;;;;13.39;51.56;100787.79;1766743;80;21118;-75
2021/04/14 05:13:21;;;;;;;29.23;18.82;;;;;;;13.38;51.43;100796.05;1761781;80;21128;-74
2021/04/14 05:15:49;;;;;;;25.55;17.90;;;;;;;13.31;51.44;100789.16;1767856;80;21108;-75
2021/04/14 05:18:16;;;;;;;26.37;17.77;;;;;;;13.26;51.58;100790.65;1768660;78;21137;-76
2021/04/14 05:20:47;;;;;;;29.75;19.42;;;;;;;13.26;51.59;100783.92;1755115;80;21173;-75
2021/04/14 05:23:14;;;;;;;31.70;18.55;;;;;;;13.30;51.77;100783.93;1755010;79;21094;-76
2021/04/14 05:25:45;;;;;;;33.88;19.87;;;;;;;13.33;51.79;100780.41;1732024;79;21187;-77
2021/04/14 05:28:32;;;;;;;38.67;20.30;;;;;;;13.36;51.63;100788.15;1760720;80;21679;-75
2021/04/14 05:30:56;;;;;;;38.42;20.97;;;;;;;13.37;51.56;100783.09;1662047;81;21150;-75
2021/04/14 05:33:25;;;;;;;36.15;20.10;;;;;;;13.36;51.56;100779.23;1770776;80;21189;-74
2021/04/14 05:35:53;;;;;;;30.35;18.48;;;;;;;13.39;51.49;100773.50;1772607;79;21738;-76
2021/04/14 05:38:20;;;;;;;32.93;19.05;;;;;;;13.43;51.43;100777.03;1754407;81;21604;-74
2021/04/14 05:40:48;;;;;;;35.58;18.87;;;;;;;13.49;51.38;100775.54;1769297;79;21105;-74
2021/04/14 05:43:22;;;;;;;35.90;19.40;;;;;;;13.55;51.19;100777.54;1753506;81;21140;-75
2021/04/14 05:45:59;;;;;;;30.30;17.17;;;;;;;13.60;51.03;100772.48;1750242;81;21137;-74
2021/04/14 05:48:26;;;;;;;31.12;18.23;;;;;;;13.69;50.60;100772.80;1748376;81;21225;-74
2021/04/14 05:50:58;;;;;;;25.70;15.25;;;;;;;13.71;50.50;100769.42;1755735;81;21149;-75
2021/04/14 05:53:28;;;;;;;30.68;18.60;;;;;;;13.80;50.15;100766.72;1755127;81;21115;-74
2021/04/14 05:55:55;;;;;;;35.38;21.27;;;;;;;13.79;50.12;100769.09;1754265;81;21116;-75
2021/04/14 05:58:22;;;;;;;32.15;21.82;;;;;;;13.81;50.27;100768.42;1726167;81;21160;-76
2021/04/14 06:00:50;;;;;;;38.28;23.52;;;;;;;14.03;49.90;100767.66;1758392;81;21692;-76
2021/04/14 06:03:17;;;;;;;31.87;19.70;;;;;;;14.12;49.45;100771.17;1755213;81;21121;-76
2021/04/14 06:05:45;;;;;;;24.75;17.60;;;;;;;14.12;49.33;100773.36;1737175;81;21117;-77
2021/04/14 06:08:17;;;;;;;26.55;17.17;;;;;;;14.14;48.84;100766.47;1750753;81;21195;-75
2021/04/14 06:10:45;;;;;;;28.10;17.60;;;;;;;14.14;48.83;100774.55;1756812;81;21961;-75
2021/04/14 06:13:12;;;;;;;23.67;13.78;;;;;;;14.07;49.20;100764.12;1746522;81;21142;-76
2021/04/14 06:15:39;;;;;;;27.62;15.25;;;;;;;14.16;48.98;100767.97;1753552;81;21136;-76
2021/04/14 06:18:06;;;;;;;;;;;;;;;14.25;48.76;100765.24;1759785;80;21684;-77
2021/04/14 06:20:34;;;;;;;19.57;12.47;;;;;;;14.31;48.47;100756.48;1746224;81;20267;-77
2021/04/14 06:23:05;;;;;;;24.57;13.22;;;;;;;14.39;48.21;100755.91;1757241;81;21148;-76
2021/04/14 06:25:37;;;;;;;24.90;15.53;;;;;;;14.51;48.00;100757.75;1753534;81;21127;-76
2021/04/14 06:28:08;;;;;;;23.77;15.68;;;;;;;14.64;47.67;100753.97;1755174;81;21557;-77
2021/04/14 06:30:34;;;;;;;24.32;14.95;;;;;;;14.67;47.44;100752.28;1749339;81;21160;-75
2021/04/14 06:33:03;;;;;;;25.15;16.30;;;;;;;14.70;47.40;100754.59;1749949;81;21156;-77
2021/04/14 06:35:31;;;;;;;25.77;15.60;;;;;;;14.76;47.35;100747.67;1750222;81;21173;-76
2021/04/14 06:38:01;;;;;;;25.43;14.50;;;;;;;14.88;47.29;100748.09;1746084;81;21612;-74
2021/04/14 06:43:41;;;;;;;19.50;11.78;;;;;;;15.12;46.66;100746.55;1772303;79;21109;-76
2021/04/14 06:46:08;;;;;;;22.50;13.48;;;;;;;15.20;46.08;100753.23;1770499;80;26974;-77
2021/04/14 06:48:53;;;;;;;19.20;12.98;;;;;;;15.25;45.58;100750.50;1716959;81;21129;-76
2021/04/14 06:51:29;;;;;;;19.92;11.28;;;;;;;15.27;45.20;100752.02;1786515;80;21136;-78
2021/04/14 06:54:22;;;;;;;24.55;13.22;;;;;;;15.30;44.97;100752.98;1753712;80;21121;-75
2021/04/14 06:56:54;;;;;;;20.00;12.78;;;;;;;15.36;45.08;100748.73;1759635;80;21111;-74
2021/04/14 06:59:23;;;;;;;21.60;12.58;;;;;;;15.44;45.03;100750.86;1735756;81;21157;-74
2021/04/14 07:01:57;;;;;;;17.23;10.72;;;;;;;15.52;44.99;100745.03;1731019;81;21168;-77
2021/04/14 07:04:33;;;;;;;18.12;12.65;;;;;;;15.52;43.65;100747.73;1764772;79;21086;-74
2021/04/14 07:07:01;;;;;;;19.17;11.78;;;;;;;15.55;43.21;100747.38;1740462;79;21153;-75
2021/04/14 07:09:40;;;;;;;16.20;10.90;;;;;;;15.59;42.74;100748.17;1773495;79;21141;-76
2021/04/14 07:12:14;;;;;;;15.18;9.70;;;;;;;15.59;42.33;100748.17;1756557;79;21165;-77
2021/04/14 07:14:41;;;;;;;16.00;10.05;;;;;;;15.58;42.67;100749.69;1769724;79;21157;-76
2021/04/14 07:17:43;;;;;;;14.98;9.80;;;;;;;15.57;42.72;100746.16;1764847;80;21136;-77
2021/04/14 07:20:37;;;;;;;14.15;9.05;;;;;;;15.55;42.73;100746.86;1764898;79;22052;-76
2021/04/14 07:23:25;;;;;;;13.65;8.03;;;;;;;15.49;42.40;100739.51;1762921;79;21109;-77
2021/04/14 07:26:13;;;;;;;17.70;10.70;;;;;;;15.42;42.89;100743.95;1767908;79;21128;-76
2021/04/14 07:29:15;;;;;;;14.90;10.43;;;;;;;15.38;42.88;100742.63;1768718;79;21140;-77
2021/04/14 07:31:54;;;;;;;16.93;9.58;;;;;;;15.31;43.02;100744.40;1689879;84;21164;-76
2021/04/14 07:34:44;;;;;;;13.40;10.10;;;;;;;15.34;43.32;100736.75;1853779;76;22678;-75
2021/04/14 07:37:58;;;;;;;16.02;9.35;;;;;;;15.32;43.47;100737.98;1806475;77;21161;-75
2021/04/14 07:41:09;;;;;;;16.75;9.53;;;;;;;15.37;43.19;100735.05;1840440;76;21213;-75
2021/04/14 07:43:46;;;;;;;15.03;10.70;;;;;;;15.37;43.20;100728.81;1845564;77;21014;-75
2021/04/14 07:46:15;;;;;;;15.08;9.10;;;;;;;15.42;43.61;100731.80;1832200;77;20982;-75
2021/04/14 07:48:44;;;;;;;14.40;9.98;;;;;;;15.54;43.36;100729.51;1753797;78;21204;-76
2021/04/14 07:51:17;;;;;;;14.55;10.08;;;;;;;15.64;43.13;100729.59;1812325;77;21518;-76
2021/04/14 07:54:07;;;;;;;18.05;10.50;;;;;;;15.78;42.85;100717.64;1795050;78;21023;-76
2021/04/14 07:56:50;;;;;;;18.77;11.83;;;;;;;15.91;42.85;100713.26;1803553;78;21166;-75
2021/04/14 07:59:34;;;;;;;15.98;9.48;;;;;;;16.16;42.72;100712.43;1806228;77;21127;-75
2021/04/14 08:02:07;;;;;;;14.20;9.88;;;;;;;16.43;42.07;100715.47;1761269;79;21427;-75
2021/04/14 08:04:41;;;;;;;14.47;8.18;;;;;;;16.67;41.54;100711.08;1804239;77;21564;-76
2021/04/14 08:07:16;;;;;;;12.20;8.83;;;;;;;16.83;40.93;100697.84;1779711;79;21198;-77
2021/04/14 08:09:54;;;;;;;14.43;8.68;;;;;;;17.08;40.72;100706.90;1775803;79;21783;-75
2021/04/14 08:12:27;;;;;;;10.40;8.10;;;;;;;17.32;40.07;100692.96;1797206;77;21253;-75
2021/04/14 08:15:07;;;;;;;11.38;8.08;;;;;;;17.57;39.39;100697.39;1772398;79;21190;-74
2021/04/14 08:17:35;;;;;;;10.93;7.35;;;;;;;17.77;38.81;100685.91;1769408;78;21114;-77
2021/04/14 08:20:08;;;;;;;8.95;6.67;;;;;;;17.96;38.50;100679.22;1771503;78;21649;-75
2021/04/14 08:22:35;;;;;;;12.53;7.42;;;;;;;18.17;38.19;100681.00;1772016;78;21161;-76
2021/04/14 08:25:05;;;;;;;13.20;8.70;;;;;;;18.46;37.57;100681.70;1748938;78;21624;-75
2021/04/14 08:27:40;;;;;;;15.43;9.25;;;;;;;18.63;37.66;100675.39;1776627;79;21130;-76
2021/04/14 08:30:18;;;;;;;14.63;9.23;;;;;;;18.73;38.69;100675.33;1801253;79;21136;-77
2021/04/14 08:32:57;;;;;;;13.08;8.98;;;;;;;18.75;39.08;100669.16;1772116;79;21154;-76
2021/04/14 08:35:33;;;;;;;12.45;9.25;;;;;;;18.82;38.67;100666.47;1766332;78;21221;-76
2021/04/14 08:38:14;;;;;;;19.12;12.05;;;;;;;18.88;39.13;100660.73;1771370;79;21686;-76
2021/04/14 08:40:53;;;;;;;15.83;9.83;;;;;;;18.94;39.05;100657.17;1791441;77;21212;-75
2021/04/14 08:43:32;;;;;;;16.57;9.98;;;;;;;18.96;38.89;100664.08;1760015;79;21218;-75
2021/04/14 08:46:19;;;;;;;18.37;10.88;;;;;;;18.92;39.05;100653.84;1801972;77;21593;-75
2021/04/14 08:48:52;;;;;;;13.98;9.83;;;;;;;18.88;39.43;100657.49;1796439;77;21003;-76
2021/04/14 08:51:19;;;;;;;14.47;10.30;;;;;;;18.77;39.88;100653.22;1769303;79;21130;-76
2021/04/14 08:53:48;;;;;;;17.67;11.50;;;;;;;18.64;40.33;100654.83;1748841;79;21150;-77
2021/04/14 08:56:15;;;;;;;19.17;12.45;;;;;;;18.57;40.91;100644.47;1770568;79;21079;-77
2021/04/14 08:58:44;;;;;;;15.32;10.70;;;;;;;18.54;41.27;100639.48;1787544;77;21125;-74
2021/04/14 09:01:14;;;;;;;;;;;;;;;18.53;41.01;100641.02;1796506;77;21386;-75
2021/04/14 09:03:42;;;;;;;17.32;10.88;;;;;;;18.50;40.80;100643.12;1798164;77;20184;-76
2021/04/14 09:06:10;;;;;;;16.65;11.15;;;;;;;18.43;41.10;100640.06;1794938;77;21014;-75
2021/04/14 09:08:42;;;;;;;14.55;10.18;;;;;;;18.33;41.50;100636.92;1798609;77;21116;-76
2021/04/14 09:11:27;;;;;;;16.37;9.83;;;;;;;18.22;41.47;100630.23;1768082;79;21113;-75
2021/04/14 09:14:06;;;;;;;12.65;10.58;;;;;;;18.13;41.36;100640.94;1793402;77;21141;-75
2021/04/14 09:16:41;;;;;;;17.52;10.90;;;;;;;17.94;41.57;100628.47;1794865;77;21160;-74
2021/04/14 09:19:23;;;;;;;15.48;10.58;;;;;;;17.83;42.00;100635.80;1800336;77;21104;-76
2021/04/14 09:22:03;;;;;;;16.23;10.88;;;;;;;17.79;42.36;100629.63;1795491;77;21905;-74
2021/04/14 09:24:46;;;;;;;15.32;10.60;;;;;;;17.69;42.45;100636.22;1798353;77;21092;-75
2021/04/14 09:27:24;;;;;;;15.25;10.35;;;;;;;17.58;42.72;100624.61;1791240;77;21564;-77
2021/04/14 09:30:04;;;;;;;13.90;10.38;;;;;;;17.49;42.61;100623.09;1785871;79;21138;-75
2021/04/14 09:32:39;;;;;;;14.50;10.25;;;;;;;17.37;42.53;100619.27;1774727;78;21110;-75
2021/04/14 09:35:21;;;;;;;16.87;9.40;;;;;;;17.29;42.68;100615.35;1770342;79;21590;-74
2021/04/14 09:37:49;;;;;;;17.57;10.98;;;;;;;17.24;42.82;100623.55;1771730;78;21990;-76
2021/04/14 09:40:31;;;;;;;16.10;10.93;;;;;;;17.14;42.75;100626.30;1773348;78;20999;-76
2021/04/14 09:43:00;;;;;;;16.02;11.70;;;;;;;17.05;43.19;100626.95;1773951;78;21113;-74
2021/04/14 09:45:33;;;;;;;12.95;10.20;;;;;;;17.04;43.49;100619.87;1777660;78;22101;-74
2021/04/14 09:48:17;;;;;;;17.17;11.48;;;;;;;16.99;43.73;100615.57;1747229;78;21090;-75
2021/04/14 09:50:46;;;;;;;19.23;12.88;;;;;;;16.94;43.86;100612.59;1786142;78;21100;-77
2021/04/14 09:53:24;;;;;;;19.52;12.80;;;;;;;16.93;43.84;100618.52;1768803;78;21484;-75
2021/04/14 09:56:07;;;;;;;14.28;10.23;;;;;;;16.84;44.02;100602.63;1785592;78;21121;-73
2021/04/14 09:59:03;;;;;;;14.13;10.48;;;;;;;16.73;44.36;100612.95;1794389;78;21101;-75
2021/04/14 10:01:32;;;;;;;13.15;9.83;;;;;;;16.76;44.42;100621.20;1789076;78;21109;-75
2021/04/14 10:04:06;;;;;;;16.42;10.55;;;;;;;16.77;44.48;100609.87;1749412;78;21185;-77
2021/04/14 10:06:34;;;;;;;12.82;10.03;;;;;;;16.77;44.58;100613.41;1799682;78;21111;-75
2021/04/14 10:09:08;;;;;;;21.97;14.35;;;;;;;16.79;44.71;100618.61;1778378;78;21481;-76
2021/04/14 10:11:38;;;;;;;24.37;14.68;;;;;;;16.72;44.76;100616.70;1802515;78;21170;-77
2021/04/14 10:14:11;;;;;;;20.37;13.50;;;;;;;16.55;45.09;100612.55;1788085;79;21141;-75
2021/04/14 10:16:39;;;;;;;15.80;11.53;;;;;;;16.41;45.39;100608.04;1778628;79;21565;-76
2021/04/14 10:19:14;;;;;;;21.55;12.37;;;;;;;16.39;45.45;100604.67;1784552;79;21114;-76
2021/04/14 10:21:42;;;;;;;17.15;10.98;;;;;;;16.39;45.64;100609.56;1779971;79;21653;-77
2021/04/14 10:24:13;;;;;;;17.55;11.75;;;;;;;16.41;45.84;100601.28;1779182;79;21146;-76
2021/04/14 10:26:51;;;;;;;17.80;10.72;;;;;;;16.43;46.02;100606.80;1762946;79;21646;-76
2021/04/14 10:29:20;;;;;;;17.02;11.48;;;;;;;16.48;46.18;100600.81;1781504;79;21126;-76
2021/04/14 10:31:49;;;;;;;22.07;11.53;;;;;;;16.52;46.20;100602.10;1793644;79;21103;-74
2021/04/14 10:34:30;;;;;;;20.45;12.20;;;;;;;16.50;46.16;100606.88;1786363;79;21089;-75
2021/04/14 10:36:58;;;;;;;20.43;12.28;;;;;;;16.44;46.20;100604.93;1777124;79;20979;-75
2021/04/14 10:39:31;;;;;;;23.45;12.13;;;;;;;16.30;46.30;100604.48;1755502;79;21121;-77
2021/04/14 10:41:59;;;;;;;20.92;12.75;;;;;;;16.18;46.24;100594.19;1777042;79;21541;-75
2021/04/14 10:44:33;;;;;;;15.25;10.93;;;;;;;16.09;46.33;100591.28;1780972;79;21969;-76
2021/04/14 10:47:07;;;;;;;15.32;10.25;;;;;;;16.02;46.64;100583.59;1779873;79;21597;-74
2021/04/14 10:49:36;;;;;;;21.35;11.83;;;;;;;16.04;46.66;100590.19;1780317;79;21684;-76
2021/04/14 10:52:23;;;;;;;15.08;10.03;;;;;;;16.08;46.51;100586.91;1774015;79;20987;-76
2021/04/14 10:54:52;;;;;;;14.15;11.15;;;;;;;16.14;46.29;100588.84;1758261;79;21133;-75
2021/04/14 10:57:29;;;;;;;15.78;10.10;;;;;;;16.20;46.30;100577.77;1781144;79;21129;-77
2021/04/14 11:00:07;;;;;;;12.50;9.25;;;;;;;16.24;46.18;100579.89;1781824;79;21130;-76
2021/04/14 11:02:37;;;;;;;17.85;10.48;;;;;;;16.30;46.04;100574.22;1779736;78;21126;-76
2021/04/14 11:05:09;;;;;;;15.05;9.65;;;;;;;16.33;46.00;100574.37;1766669;79;21123;-75
2021/04/14 11:07:37;;;;;;;14.15;10.80;;;;;;;16.36;45.95;100569.42;1754706;79;21101;-76
2021/04/14 11:10:08;;;;;;;16.65;9.45;;;;;;;16.40;45.93;100572.58;1766422;79;21084;-76
2021/04/14 11:12:36;;;;;;;12.82;9.73;;;;;;;16.40;45.86;100569.36;1775115;79;21192;-75
2021/04/14 11:15:14;;;;;;;13.83;10.28;;;;;;;16.33;45.96;100560.85;1778515;79;21250;-74
2021/04/14 11:17:41;;;;;;;12.95;8.95;;;;;;;16.29;46.14;100558.21;1781624;78;21237;-76
2021/04/14 11:20:15;;;;;;;13.08;9.15;;;;;;;16.31;46.13;100556.17;1782139;79;21164;-77
2021/04/14 11:22:49;;;;;;;10.25;7.80;;;;;;;16.29;46.05;100558.21;1776281;79;21185;-75
2021/04/14 11:25:36;;;;;;;11.43;9.03;;;;;;;16.27;46.13;100558.41;1799926;77;21104;-77
2021/04/14 11:28:11;;;;;;;12.73;8.33;;;;;;;16.27;46.23;100550.83;1791721;77;21151;-78
2021/04/14 11:30:56;;;;;;;17.95;10.68;;;;;;;16.28;46.19;100556.03;1806575;77;21114;-75
2021/04/14 11:33:43;;;;;;;14.60;9.23;;;;;;;16.22;46.38;100550.89;1769476;79;21122;-75
2021/04/14 11:36:33;;;;;;;16.27;9.23;;;;;;;16.28;46.53;100543.86;1781921;79;21690;-76
2021/04/14 11:39:17;;;;;;;14.83;10.40;;;;;;;16.34;46.75;100545.78;1785682;78;21876;-76